sensor_id;sensor_type;location;lat;lon;timestamp;temperature;humidity
68026;SHT31;54819;48.030;14.710;2023-05-29T00:00:46;12.59;67.47
68026;SHT31;54819;48.030;14.710;2023-05-29T00:03:13;12.54;67.81
68026;SHT31;54819;48.030;14.710;2023-05-29T00:05:39;12.48;68.97
68026;SHT31;54819;48.030;14.710;2023-05-29T00:08:07;12.44;69.84
68026;SHT31;54819;48.030;14.710;2023-05-29T00:10:33;12.38;70.27
68026;SHT31;54819;48.030;14.710;2023-05-29T00:13:02;12.34;70.87
68026;SHT31;54819;48.030;14.710;2023-05-29T00:15:31;12.27;71.17
68026;SHT31;54819;48.030;14.710;2023-05-29T00:17:57;12.23;70.99
68026;SHT31;54819;48.030;14.710;2023-05-29T00:20:24;12.17;71.28
68026;SHT31;54819;48.030;14.710;2023-05-29T00:22:51;12.12;70.92
68026;SHT31;54819;48.030;14.710;2023-05-29T00:25:18;12.06;71.68
68026;SHT31;54819;48.030;14.710;2023-05-29T00:27:44;11.99;71.61
68026;SHT31;54819;48.030;14.710;2023-05-29T00:30:11;11.94;72.24
68026;SHT31;54819;48.030;14.710;2023-05-29T00:32:38;11.88;72.41
68026;SHT31;54819;48.030;14.710;2023-05-29T00:35:05;11.83;72.89
68026;SHT31;54819;48.030;14.710;2023-05-29T00:37:33;11.79;72.96
68026;SHT31;54819;48.030;14.710;2023-05-29T00:40:00;11.74;72.70
68026;SHT31;54819;48.030;14.710;2023-05-29T00:42:26;11.71;73.23
68026;SHT31;54819;48.030;14.710;2023-05-29T00:44:53;11.67;73.58
68026;SHT31;54819;48.030;14.710;2023-05-29T00:47:19;11.63;73.39
68026;SHT31;54819;48.030;14.710;2023-05-29T00:49:47;11.58;73.57
68026;SHT31;54819;48.030;14.710;2023-05-29T00:52:14;11.56;73.63
68026;SHT31;54819;48.030;14.710;2023-05-29T00:54:42;11.53;73.78
68026;SHT31;54819;48.030;14.710;2023-05-29T00:57:12;11.50;73.87
68026;SHT31;54819;48.030;14.710;2023-05-29T00:59:40;11.46;73.18
68026;SHT31;54819;48.030;14.710;2023-05-29T01:02:08;11.46;74.44
68026;SHT31;54819;48.030;14.710;2023-05-29T01:04:35;11.41;74.33
68026;SHT31;54819;48.030;14.710;2023-05-29T01:07:02;11.40;74.30
68026;SHT31;54819;48.030;14.710;2023-05-29T01:09:30;11.37;74.03
68026;SHT31;54819;48.030;14.710;2023-05-29T01:12:08;11.33;74.42
68026;SHT31;54819;48.030;14.710;2023-05-29T01:20:34;11.22;74.73
68026;SHT31;54819;48.030;14.710;2023-05-29T01:23:18;11.18;74.64
68026;SHT31;54819;48.030;14.710;2023-05-29T01:26:09;11.17;74.33
68026;SHT31;54819;48.030;14.710;2023-05-29T01:28:47;11.17;74.24
68026;SHT31;54819;48.030;14.710;2023-05-29T01:31:17;11.18;73.29
68026;SHT31;54819;48.030;14.710;2023-05-29T01:33:53;11.19;73.71
68026;SHT31;54819;48.030;14.710;2023-05-29T01:36:21;11.19;73.05
68026;SHT31;54819;48.030;14.710;2023-05-29T01:38:49;11.23;73.54
68026;SHT31;54819;48.030;14.710;2023-05-29T01:41:18;11.23;73.91
68026;SHT31;54819;48.030;14.710;2023-05-29T01:43:47;11.24;73.68
68026;SHT31;54819;48.030;14.710;2023-05-29T01:46:16;11.25;74.59
68026;SHT31;54819;48.030;14.710;2023-05-29T01:48:44;11.25;74.70
68026;SHT31;54819;48.030;14.710;2023-05-29T01:51:12;11.27;74.58
68026;SHT31;54819;48.030;14.710;2023-05-29T01:53:39;11.28;74.47
68026;SHT31;54819;48.030;14.710;2023-05-29T01:56:08;11.29;74.42
68026;SHT31;54819;48.030;14.710;2023-05-29T01:58:36;11.29;74.27
68026;SHT31;54819;48.030;14.710;2023-05-29T02:01:05;11.29;74.68
68026;SHT31;54819;48.030;14.710;2023-05-29T02:03:33;11.29;74.57
68026;SHT31;54819;48.030;14.710;2023-05-29T02:06:00;11.26;75.20
68026;SHT31;54819;48.030;14.710;2023-05-29T02:08:27;11.24;74.49
68026;SHT31;54819;48.030;14.710;2023-05-29T02:10:54;11.20;75.18
68026;SHT31;54819;48.030;14.710;2023-05-29T02:13:21;11.15;75.81
68026;SHT31;54819;48.030;14.710;2023-05-29T02:15:48;11.10;75.93
68026;SHT31;54819;48.030;14.710;2023-05-29T02:18:15;11.06;75.76
68026;SHT31;54819;48.030;14.710;2023-05-29T02:20:43;11.02;75.79
68026;SHT31;54819;48.030;14.710;2023-05-29T02:23:16;10.96;75.79
68026;SHT31;54819;48.030;14.710;2023-05-29T02:25:42;10.91;75.69
68026;SHT31;54819;48.030;14.710;2023-05-29T02:28:09;10.86;75.35
68026;SHT31;54819;48.030;14.710;2023-05-29T02:30:36;10.80;74.65
68026;SHT31;54819;48.030;14.710;2023-05-29T02:33:03;10.74;75.28
68026;SHT31;54819;48.030;14.710;2023-05-29T02:35:33;10.69;75.31
68026;SHT31;54819;48.030;14.710;2023-05-29T02:37:59;10.64;75.41
68026;SHT31;54819;48.030;14.710;2023-05-29T02:40:26;10.58;75.88
68026;SHT31;54819;48.030;14.710;2023-05-29T02:42:53;10.54;76.21
68026;SHT31;54819;48.030;14.710;2023-05-29T02:45:20;10.50;76.36
68026;SHT31;54819;48.030;14.710;2023-05-29T02:47:46;10.47;77.46
68026;SHT31;54819;48.030;14.710;2023-05-29T02:50:13;10.44;77.55
68026;SHT31;54819;48.030;14.710;2023-05-29T02:52:41;10.44;79.03
68026;SHT31;54819;48.030;14.710;2023-05-29T02:55:08;10.45;78.28
68026;SHT31;54819;48.030;14.710;2023-05-29T02:57:35;10.46;78.29
68026;SHT31;54819;48.030;14.710;2023-05-29T03:00:02;10.48;77.61
68026;SHT31;54819;48.030;14.710;2023-05-29T03:02:34;10.49;78.44
68026;SHT31;54819;48.030;14.710;2023-05-29T03:05:03;10.50;78.13
68026;SHT31;54819;48.030;14.710;2023-05-29T03:07:31;10.53;79.67
68026;SHT31;54819;48.030;14.710;2023-05-29T03:09:57;10.53;78.32
68026;SHT31;54819;48.030;14.710;2023-05-29T03:12:25;10.50;75.45
68026;SHT31;54819;48.030;14.710;2023-05-29T03:14:54;10.48;76.76
68026;SHT31;54819;48.030;14.710;2023-05-29T03:17:23;10.46;77.21
68026;SHT31;54819;48.030;14.710;2023-05-29T03:19:50;10.48;77.41
68026;SHT31;54819;48.030;14.710;2023-05-29T03:22:17;10.46;76.12
68026;SHT31;54819;48.030;14.710;2023-05-29T03:24:44;10.44;77.10
68026;SHT31;54819;48.030;14.710;2023-05-29T03:27:12;10.38;76.34
68026;SHT31;54819;48.030;14.710;2023-05-29T03:29:39;10.33;75.98
68026;SHT31;54819;48.030;14.710;2023-05-29T03:32:06;10.28;77.43
68026;SHT31;54819;48.030;14.710;2023-05-29T03:34:33;10.27;78.01
68026;SHT31;54819;48.030;14.710;2023-05-29T03:37:02;10.29;77.91
68026;SHT31;54819;48.030;14.710;2023-05-29T03:39:29;10.32;77.33
68026;SHT31;54819;48.030;14.710;2023-05-29T03:41:56;10.33;79.00
68026;SHT31;54819;48.030;14.710;2023-05-29T03:44:23;10.36;79.54
68026;SHT31;54819;48.030;14.710;2023-05-29T03:46:50;10.44;78.37
68026;SHT31;54819;48.030;14.710;2023-05-29T03:49:18;10.51;78.71
68026;SHT31;54819;48.030;14.710;2023-05-29T03:51:44;10.58;79.16
68026;SHT31;54819;48.030;14.710;2023-05-29T03:54:11;10.67;78.90
68026;SHT31;54819;48.030;14.710;2023-05-29T03:56:38;10.76;78.64
68026;SHT31;54819;48.030;14.710;2023-05-29T03:59:05;10.86;78.47
68026;SHT31;54819;48.030;14.710;2023-05-29T04:01:32;10.99;78.15
68026;SHT31;54819;48.030;14.710;2023-05-29T04:03:58;11.13;78.06
68026;SHT31;54819;48.030;14.710;2023-05-29T04:06:25;11.24;77.79
68026;SHT31;54819;48.030;14.710;2023-05-29T04:08:53;11.35;78.48
68026;SHT31;54819;48.030;14.710;2023-05-29T04:11:19;11.44;79.28
68026;SHT31;54819;48.030;14.710;2023-05-29T04:13:49;11.54;79.43
68026;SHT31;54819;48.030;14.710;2023-05-29T04:16:16;11.63;78.44
68026;SHT31;54819;48.030;14.710;2023-05-29T04:18:43;11.74;77.33
68026;SHT31;54819;48.030;14.710;2023-05-29T04:21:09;11.82;78.11
68026;SHT31;54819;48.030;14.710;2023-05-29T04:23:37;11.90;76.70
68026;SHT31;54819;48.030;14.710;2023-05-29T04:26:04;12.01;76.80
68026;SHT31;54819;48.030;14.710;2023-05-29T04:28:32;12.15;76.64
68026;SHT31;54819;48.030;14.710;2023-05-29T04:30:59;12.36;76.53
68026;SHT31;54819;48.030;14.710;2023-05-29T04:33:27;12.53;76.01
68026;SHT31;54819;48.030;14.710;2023-05-29T04:35:56;12.74;75.63
68026;SHT31;54819;48.030;14.710;2023-05-29T04:38:23;13.04;74.58
68026;SHT31;54819;48.030;14.710;2023-05-29T04:40:53;13.36;74.28
68026;SHT31;54819;48.030;14.710;2023-05-29T04:43:24;13.66;73.90
68026;SHT31;54819;48.030;14.710;2023-05-29T04:46:00;13.99;73.51
68026;SHT31;54819;48.030;14.710;2023-05-29T04:48:29;14.22;73.23
68026;SHT31;54819;48.030;14.710;2023-05-29T04:50:57;14.45;73.10
68026;SHT31;54819;48.030;14.710;2023-05-29T04:53:26;14.72;73.19
68026;SHT31;54819;48.030;14.710;2023-05-29T04:55:52;15.00;73.08
68026;SHT31;54819;48.030;14.710;2023-05-29T04:58:19;15.18;71.87
68026;SHT31;54819;48.030;14.710;2023-05-29T05:00:47;15.41;71.47
68026;SHT31;54819;48.030;14.710;2023-05-29T05:03:14;15.61;71.23
68026;SHT31;54819;48.030;14.710;2023-05-29T05:05:43;16.04;71.29
68026;SHT31;54819;48.030;14.710;2023-05-29T05:08:10;16.43;70.27
68026;SHT31;54819;48.030;14.710;2023-05-29T05:10:38;16.59;68.64
68026;SHT31;54819;48.030;14.710;2023-05-29T05:13:05;16.89;69.01
68026;SHT31;54819;48.030;14.710;2023-05-29T05:15:35;17.03;68.13
68026;SHT31;54819;48.030;14.710;2023-05-29T05:18:02;17.02;67.24
68026;SHT31;54819;48.030;14.710;2023-05-29T05:20:29;17.02;66.95
68026;SHT31;54819;48.030;14.710;2023-05-29T05:22:57;16.91;66.75
68026;SHT31;54819;48.030;14.710;2023-05-29T05:25:26;16.73;66.81
68026;SHT31;54819;48.030;14.710;2023-05-29T05:27:53;16.58;66.89
68026;SHT31;54819;48.030;14.710;2023-05-29T05:30:19;16.50;66.88
68026;SHT31;54819;48.030;14.710;2023-05-29T05:32:48;16.45;66.78
68026;SHT31;54819;48.030;14.710;2023-05-29T05:35:14;16.38;66.60
68026;SHT31;54819;48.030;14.710;2023-05-29T05:37:42;16.25;66.90
68026;SHT31;54819;48.030;14.710;2023-05-29T05:40:10;16.19;66.93
68026;SHT31;54819;48.030;14.710;2023-05-29T05:42:44;16.04;67.59
68026;SHT31;54819;48.030;14.710;2023-05-29T05:45:11;15.93;67.93
68026;SHT31;54819;48.030;14.710;2023-05-29T05:47:38;15.75;69.26
68026;SHT31;54819;48.030;14.710;2023-05-29T05:50:06;15.70;68.53
68026;SHT31;54819;48.030;14.710;2023-05-29T05:52:33;15.70;68.24
68026;SHT31;54819;48.030;14.710;2023-05-29T05:55:00;15.69;68.11
68026;SHT31;54819;48.030;14.710;2023-05-29T05:57:28;15.68;68.45
68026;SHT31;54819;48.030;14.710;2023-05-29T05:59:55;15.73;68.07
68026;SHT31;54819;48.030;14.710;2023-05-29T06:02:22;15.72;68.79
68026;SHT31;54819;48.030;14.710;2023-05-29T06:04:49;15.76;68.68
68026;SHT31;54819;48.030;14.710;2023-05-29T06:07:16;15.83;69.55
68026;SHT31;54819;48.030;14.710;2023-05-29T06:09:44;15.84;69.14
68026;SHT31;54819;48.030;14.710;2023-05-29T06:12:10;15.91;69.05
68026;SHT31;54819;48.030;14.710;2023-05-29T06:14:42;15.99;68.86
68026;SHT31;54819;48.030;14.710;2023-05-29T06:17:08;16.01;69.25
68026;SHT31;54819;48.030;14.710;2023-05-29T06:19:35;16.10;68.71
68026;SHT31;54819;48.030;14.710;2023-05-29T06:22:03;16.18;69.25
68026;SHT31;54819;48.030;14.710;2023-05-29T06:24:30;16.27;68.34
68026;SHT31;54819;48.030;14.710;2023-05-29T06:26:57;16.30;69.21
68026;SHT31;54819;48.030;14.710;2023-05-29T06:29:24;16.48;68.66
68026;SHT31;54819;48.030;14.710;2023-05-29T06:31:51;16.67;68.10
68026;SHT31;54819;48.030;14.710;2023-05-29T06:34:18;16.77;67.95
68026;SHT31;54819;48.030;14.710;2023-05-29T06:36:45;16.71;68.32
68026;SHT31;54819;48.030;14.710;2023-05-29T06:39:13;16.82;67.99
68026;SHT31;54819;48.030;14.710;2023-05-29T06:41:40;16.95;68.20
68026;SHT31;54819;48.030;14.710;2023-05-29T06:44:07;17.08;67.73
68026;SHT31;54819;48.030;14.710;2023-05-29T06:46:34;17.14;67.57
68026;SHT31;54819;48.030;14.710;2023-05-29T06:49:00;17.11;67.73
68026;SHT31;54819;48.030;14.710;2023-05-29T06:51:32;17.17;67.35
68026;SHT31;54819;48.030;14.710;2023-05-29T06:54:32;17.21;67.13
68026;SHT31;54819;48.030;14.710;2023-05-29T06:56:59;17.24;67.13
68026;SHT31;54819;48.030;14.710;2023-05-29T06:59:36;17.35;66.95
68026;SHT31;54819;48.030;14.710;2023-05-29T07:02:04;17.47;66.95
68026;SHT31;54819;48.030;14.710;2023-05-29T07:04:32;17.55;66.94
68026;SHT31;54819;48.030;14.710;2023-05-29T07:06:59;17.70;66.64
68026;SHT31;54819;48.030;14.710;2023-05-29T07:09:26;17.83;66.26
68026;SHT31;54819;48.030;14.710;2023-05-29T07:11:54;17.90;65.96
68026;SHT31;54819;48.030;14.710;2023-05-29T07:14:22;17.99;65.73
68026;SHT31;54819;48.030;14.710;2023-05-29T07:16:49;17.96;65.67
68026;SHT31;54819;48.030;14.710;2023-05-29T07:19:15;17.96;65.85
68026;SHT31;54819;48.030;14.710;2023-05-29T07:21:48;18.11;65.40
68026;SHT31;54819;48.030;14.710;2023-05-29T07:24:16;18.23;64.84
68026;SHT31;54819;48.030;14.710;2023-05-29T07:26:43;18.30;64.60
68026;SHT31;54819;48.030;14.710;2023-05-29T07:29:10;18.42;64.23
68026;SHT31;54819;48.030;14.710;2023-05-29T07:31:37;18.56;63.13
68026;SHT31;54819;48.030;14.710;2023-05-29T07:34:07;18.66;62.64
68026;SHT31;54819;48.030;14.710;2023-05-29T07:36:34;18.79;61.64
68026;SHT31;54819;48.030;14.710;2023-05-29T07:39:01;18.90;60.75
68026;SHT31;54819;48.030;14.710;2023-05-29T07:41:28;19.04;61.39
68026;SHT31;54819;48.030;14.710;2023-05-29T07:43:55;19.14;60.32
68026;SHT31;54819;48.030;14.710;2023-05-29T07:46:22;19.28;60.23
68026;SHT31;54819;48.030;14.710;2023-05-29T07:48:52;19.29;58.88
68026;SHT31;54819;48.030;14.710;2023-05-29T07:51:19;19.31;58.43
68026;SHT31;54819;48.030;14.710;2023-05-29T07:53:46;19.37;58.98
68026;SHT31;54819;48.030;14.710;2023-05-29T07:56:13;19.50;58.11
68026;SHT31;54819;48.030;14.710;2023-05-29T07:58:40;19.54;57.90
68026;SHT31;54819;48.030;14.710;2023-05-29T08:01:07;19.65;57.71
68026;SHT31;54819;48.030;14.710;2023-05-29T08:03:35;19.67;57.87
68026;SHT31;54819;48.030;14.710;2023-05-29T08:06:02;19.74;58.03
68026;SHT31;54819;48.030;14.710;2023-05-29T08:08:29;19.73;57.71
68026;SHT31;54819;48.030;14.710;2023-05-29T08:10:56;19.89;57.69
68026;SHT31;54819;48.030;14.710;2023-05-29T08:13:24;20.02;56.33
68026;SHT31;54819;48.030;14.710;2023-05-29T08:15:51;20.09;57.35
68026;SHT31;54819;48.030;14.710;2023-05-29T08:18:18;20.17;56.39
68026;SHT31;54819;48.030;14.710;2023-05-29T08:20:44;20.24;56.68
68026;SHT31;54819;48.030;14.710;2023-05-29T08:23:11;20.31;55.88
68026;SHT31;54819;48.030;14.710;2023-05-29T08:25:38;20.36;56.28
68026;SHT31;54819;48.030;14.710;2023-05-29T08:28:04;20.41;56.63
68026;SHT31;54819;48.030;14.710;2023-05-29T08:30:31;20.37;56.32
68026;SHT31;54819;48.030;14.710;2023-05-29T08:32:58;20.41;56.36
68026;SHT31;54819;48.030;14.710;2023-05-29T08:35:24;20.56;56.63
68026;SHT31;54819;48.030;14.710;2023-05-29T08:37:52;20.72;55.22
68026;SHT31;54819;48.030;14.710;2023-05-29T08:40:18;20.70;53.98
68026;SHT31;54819;48.030;14.710;2023-05-29T08:45:34;20.75;53.15
68026;SHT31;54819;48.030;14.710;2023-05-29T08:48:08;20.75;52.47
68026;SHT31;54819;48.030;14.710;2023-05-29T08:50:43;20.89;52.78
68026;SHT31;54819;48.030;14.710;2023-05-29T08:53:14;20.98;50.71
68026;SHT31;54819;48.030;14.710;2023-05-29T08:55:41;20.99;50.41
68026;SHT31;54819;48.030;14.710;2023-05-29T08:58:09;21.02;49.36
68026;SHT31;54819;48.030;14.710;2023-05-29T09:00:37;21.08;49.70
68026;SHT31;54819;48.030;14.710;2023-05-29T09:03:05;21.15;50.00
68026;SHT31;54819;48.030;14.710;2023-05-29T09:05:31;21.21;49.42
68026;SHT31;54819;48.030;14.710;2023-05-29T09:07:59;21.28;49.37
68026;SHT31;54819;48.030;14.710;2023-05-29T09:10:26;21.34;49.14
68026;SHT31;54819;48.030;14.710;2023-05-29T09:12:53;21.44;49.46
68026;SHT31;54819;48.030;14.710;2023-05-29T09:15:21;21.54;49.27
68026;SHT31;54819;48.030;14.710;2023-05-29T09:17:52;21.63;49.69
68026;SHT31;54819;48.030;14.710;2023-05-29T09:20:26;21.80;49.02
68026;SHT31;54819;48.030;14.710;2023-05-29T09:22:58;21.88;48.06
68026;SHT31;54819;48.030;14.710;2023-05-29T09:25:28;21.93;47.49
68026;SHT31;54819;48.030;14.710;2023-05-29T09:28:00;21.92;47.01
68026;SHT31;54819;48.030;14.710;2023-05-29T09:30:39;22.05;47.92
68026;SHT31;54819;48.030;14.710;2023-05-29T09:33:11;22.16;46.60
68026;SHT31;54819;48.030;14.710;2023-05-29T09:35:42;22.20;45.76
68026;SHT31;54819;48.030;14.710;2023-05-29T09:38:11;22.22;46.47
68026;SHT31;54819;48.030;14.710;2023-05-29T09:41:03;22.35;46.59
68026;SHT31;54819;48.030;14.710;2023-05-29T09:43:31;22.34;44.15
68026;SHT31;54819;48.030;14.710;2023-05-29T09:46:00;22.26;44.07
68026;SHT31;54819;48.030;14.710;2023-05-29T09:48:29;22.27;44.90
68026;SHT31;54819;48.030;14.710;2023-05-29T09:50:56;22.32;44.60
68026;SHT31;54819;48.030;14.710;2023-05-29T09:53:25;22.30;44.02
68026;SHT31;54819;48.030;14.710;2023-05-29T09:55:53;22.26;44.70
68026;SHT31;54819;48.030;14.710;2023-05-29T09:58:22;22.21;44.20
68026;SHT31;54819;48.030;14.710;2023-05-29T10:00:50;22.15;44.67
68026;SHT31;54819;48.030;14.710;2023-05-29T10:03:18;22.10;44.21
68026;SHT31;54819;48.030;14.710;2023-05-29T10:05:52;22.11;44.75
68026;SHT31;54819;48.030;14.710;2023-05-29T10:08:24;22.20;45.18
68026;SHT31;54819;48.030;14.710;2023-05-29T10:10:54;22.25;44.19
68026;SHT31;54819;48.030;14.710;2023-05-29T10:13:38;22.23;44.95
68026;SHT31;54819;48.030;14.710;2023-05-29T10:16:09;22.39;45.22
68026;SHT31;54819;48.030;14.710;2023-05-29T10:18:39;22.52;44.33
68026;SHT31;54819;48.030;14.710;2023-05-29T10:21:11;22.61;43.48
68026;SHT31;54819;48.030;14.710;2023-05-29T10:23:39;22.62;42.67
68026;SHT31;54819;48.030;14.710;2023-05-29T10:26:26;22.66;43.76
68026;SHT31;54819;48.030;14.710;2023-05-29T10:28:56;22.74;42.63
68026;SHT31;54819;48.030;14.710;2023-05-29T10:40:11;22.81;40.05
68026;SHT31;54819;48.030;14.710;2023-05-29T10:42:43;22.85;40.31
68026;SHT31;54819;48.030;14.710;2023-05-29T10:47:55;23.02;40.51
68026;SHT31;54819;48.030;14.710;2023-05-29T10:53:10;23.11;39.58
68026;SHT31;54819;48.030;14.710;2023-05-29T10:55:41;23.13;38.00
68026;SHT31;54819;48.030;14.710;2023-05-29T10:58:08;23.14;37.79
68026;SHT31;54819;48.030;14.710;2023-05-29T11:00:39;23.26;36.46
68026;SHT31;54819;48.030;14.710;2023-05-29T11:03:31;23.34;37.11
68026;SHT31;54819;48.030;14.710;2023-05-29T11:11:08;23.54;35.88
68026;SHT31;54819;48.030;14.710;2023-05-29T11:13:38;23.58;35.37
68026;SHT31;54819;48.030;14.710;2023-05-29T11:16:14;23.61;35.52
68026;SHT31;54819;48.030;14.710;2023-05-29T11:19:03;23.73;37.31
68026;SHT31;54819;48.030;14.710;2023-05-29T11:24:12;23.97;37.22
68026;SHT31;54819;48.030;14.710;2023-05-29T11:26:47;24.00;37.70
68026;SHT31;54819;48.030;14.710;2023-05-29T11:29:14;23.88;37.47
68026;SHT31;54819;48.030;14.710;2023-05-29T11:31:41;23.74;37.49
68026;SHT31;54819;48.030;14.710;2023-05-29T11:34:13;23.56;38.05
68026;SHT31;54819;48.030;14.710;2023-05-29T11:36:41;23.57;38.76
68026;SHT31;54819;48.030;14.710;2023-05-29T11:39:09;23.62;38.91
68026;SHT31;54819;48.030;14.710;2023-05-29T11:41:36;23.70;38.59
68026;SHT31;54819;48.030;14.710;2023-05-29T11:44:04;23.75;38.67
68026;SHT31;54819;48.030;14.710;2023-05-29T11:46:32;23.84;39.02
68026;SHT31;54819;48.030;14.710;2023-05-29T11:49:00;23.75;39.06
68026;SHT31;54819;48.030;14.710;2023-05-29T11:51:27;23.70;38.46
68026;SHT31;54819;48.030;14.710;2023-05-29T11:53:54;23.58;38.63
68026;SHT31;54819;48.030;14.710;2023-05-29T11:56:25;23.62;39.47
68026;SHT31;54819;48.030;14.710;2023-05-29T11:58:53;23.66;39.27
68026;SHT31;54819;48.030;14.710;2023-05-29T12:01:24;23.66;38.40
68026;SHT31;54819;48.030;14.710;2023-05-29T12:03:52;23.52;38.14
68026;SHT31;54819;48.030;14.710;2023-05-29T12:06:32;23.45;38.70
68026;SHT31;54819;48.030;14.710;2023-05-29T12:09:00;23.50;38.76
68026;SHT31;54819;48.030;14.710;2023-05-29T12:11:27;23.52;39.27
68026;SHT31;54819;48.030;14.710;2023-05-29T12:13:56;23.48;39.64
68026;SHT31;54819;48.030;14.710;2023-05-29T12:16:29;23.49;39.30
68026;SHT31;54819;48.030;14.710;2023-05-29T12:18:58;23.50;39.58
68026;SHT31;54819;48.030;14.710;2023-05-29T12:21:26;23.47;38.60
68026;SHT31;54819;48.030;14.710;2023-05-29T12:23:53;23.48;39.23
68026;SHT31;54819;48.030;14.710;2023-05-29T12:26:35;23.59;39.20
68026;SHT31;54819;48.030;14.710;2023-05-29T12:29:05;23.56;39.39
68026;SHT31;54819;48.030;14.710;2023-05-29T12:31:32;23.53;39.33
68026;SHT31;54819;48.030;14.710;2023-05-29T12:34:01;23.52;38.84
68026;SHT31;54819;48.030;14.710;2023-05-29T12:36:33;23.56;38.95
68026;SHT31;54819;48.030;14.710;2023-05-29T12:39:00;23.56;39.01
68026;SHT31;54819;48.030;14.710;2023-05-29T12:41:35;23.60;39.70
68026;SHT31;54819;48.030;14.710;2023-05-29T12:44:03;23.64;40.52
68026;SHT31;54819;48.030;14.710;2023-05-29T12:46:41;23.74;40.00
68026;SHT31;54819;48.030;14.710;2023-05-29T12:49:16;23.81;38.40
68026;SHT31;54819;48.030;14.710;2023-05-29T12:51:49;23.86;38.86
68026;SHT31;54819;48.030;14.710;2023-05-29T12:54:18;23.90;39.14
68026;SHT31;54819;48.030;14.710;2023-05-29T12:56:45;23.91;39.94
68026;SHT31;54819;48.030;14.710;2023-05-29T12:59:12;23.91;40.05
68026;SHT31;54819;48.030;14.710;2023-05-29T13:01:40;23.94;40.40
68026;SHT31;54819;48.030;14.710;2023-05-29T13:04:07;23.87;40.18
68026;SHT31;54819;48.030;14.710;2023-05-29T13:06:34;23.88;40.43
68026;SHT31;54819;48.030;14.710;2023-05-29T13:09:02;23.85;40.08
68026;SHT31;54819;48.030;14.710;2023-05-29T13:11:29;23.87;40.62
68026;SHT31;54819;48.030;14.710;2023-05-29T13:13:55;23.92;40.63
68026;SHT31;54819;48.030;14.710;2023-05-29T13:16:22;23.93;40.41
68026;SHT31;54819;48.030;14.710;2023-05-29T13:18:49;23.99;40.52
68026;SHT31;54819;48.030;14.710;2023-05-29T13:21:15;23.97;39.52
68026;SHT31;54819;48.030;14.710;2023-05-29T13:23:42;23.95;38.83
68026;SHT31;54819;48.030;14.710;2023-05-29T13:26:08;23.96;39.62
68026;SHT31;54819;48.030;14.710;2023-05-29T13:28:35;23.97;40.54
68026;SHT31;54819;48.030;14.710;2023-05-29T13:31:02;23.99;39.81
68026;SHT31;54819;48.030;14.710;2023-05-29T13:33:28;23.99;40.04
68026;SHT31;54819;48.030;14.710;2023-05-29T13:35:55;24.02;40.23
68026;SHT31;54819;48.030;14.710;2023-05-29T13:38:24;24.00;40.04
68026;SHT31;54819;48.030;14.710;2023-05-29T13:40:50;23.99;39.54
68026;SHT31;54819;48.030;14.710;2023-05-29T13:43:17;24.02;39.59
68026;SHT31;54819;48.030;14.710;2023-05-29T13:45:47;24.06;40.08
68026;SHT31;54819;48.030;14.710;2023-05-29T13:48:14;24.17;40.63
68026;SHT31;54819;48.030;14.710;2023-05-29T13:50:40;24.22;39.18
68026;SHT31;54819;48.030;14.710;2023-05-29T13:53:07;24.11;38.48
68026;SHT31;54819;48.030;14.710;2023-05-29T13:55:34;23.97;39.01
68026;SHT31;54819;48.030;14.710;2023-05-29T13:58:00;23.97;39.45
68026;SHT31;54819;48.030;14.710;2023-05-29T14:00:27;24.01;39.94
68026;SHT31;54819;48.030;14.710;2023-05-29T14:02:54;24.09;39.40
68026;SHT31;54819;48.030;14.710;2023-05-29T14:05:21;24.19;40.17
68026;SHT31;54819;48.030;14.710;2023-05-29T14:07:47;24.23;39.56
68026;SHT31;54819;48.030;14.710;2023-05-29T14:10:14;24.18;39.56
68026;SHT31;54819;48.030;14.710;2023-05-29T14:12:41;24.16;38.98
68026;SHT31;54819;48.030;14.710;2023-05-29T14:15:08;24.10;39.05
68026;SHT31;54819;48.030;14.710;2023-05-29T14:17:35;24.08;39.87
68026;SHT31;54819;48.030;14.710;2023-05-29T14:20:01;24.18;40.06
68026;SHT31;54819;48.030;14.710;2023-05-29T14:22:31;24.20;39.25
68026;SHT31;54819;48.030;14.710;2023-05-29T14:24:58;24.15;39.78
68026;SHT31;54819;48.030;14.710;2023-05-29T14:27:26;24.20;39.10
68026;SHT31;54819;48.030;14.710;2023-05-29T14:29:53;24.19;39.01
68026;SHT31;54819;48.030;14.710;2023-05-29T14:32:20;24.22;39.49
68026;SHT31;54819;48.030;14.710;2023-05-29T14:34:47;24.16;38.89
68026;SHT31;54819;48.030;14.710;2023-05-29T14:37:13;24.04;39.01
68026;SHT31;54819;48.030;14.710;2023-05-29T14:39:40;24.00;39.47
68026;SHT31;54819;48.030;14.710;2023-05-29T14:42:07;24.00;39.24
68026;SHT31;54819;48.030;14.710;2023-05-29T14:44:34;23.98;39.25
68026;SHT31;54819;48.030;14.710;2023-05-29T14:47:01;23.96;39.76
68026;SHT31;54819;48.030;14.710;2023-05-29T14:49:27;23.95;39.17
68026;SHT31;54819;48.030;14.710;2023-05-29T14:51:58;23.91;38.80
68026;SHT31;54819;48.030;14.710;2023-05-29T14:54:25;23.92;38.82
68026;SHT31;54819;48.030;14.710;2023-05-29T14:56:53;23.94;39.56
68026;SHT31;54819;48.030;14.710;2023-05-29T14:59:20;23.94;39.48
68026;SHT31;54819;48.030;14.710;2023-05-29T15:01:47;23.95;39.67
68026;SHT31;54819;48.030;14.710;2023-05-29T15:04:13;23.90;39.53
68026;SHT31;54819;48.030;14.710;2023-05-29T15:06:42;23.91;40.12
68026;SHT31;54819;48.030;14.710;2023-05-29T15:09:12;23.94;40.52
68026;SHT31;54819;48.030;14.710;2023-05-29T15:11:38;24.01;40.76
68026;SHT31;54819;48.030;14.710;2023-05-29T15:14:05;24.08;40.57
68026;SHT31;54819;48.030;14.710;2023-05-29T15:16:32;24.08;39.64
68026;SHT31;54819;48.030;14.710;2023-05-29T15:18:58;24.05;40.35
68026;SHT31;54819;48.030;14.710;2023-05-29T15:21:25;24.07;40.79
68026;SHT31;54819;48.030;14.710;2023-05-29T15:23:51;24.13;40.92
68026;SHT31;54819;48.030;14.710;2023-05-29T15:26:18;24.12;39.88
68026;SHT31;54819;48.030;14.710;2023-05-29T15:28:45;24.11;40.63
68026;SHT31;54819;48.030;14.710;2023-05-29T15:31:11;24.08;39.60
68026;SHT31;54819;48.030;14.710;2023-05-29T15:33:38;23.99;39.05
68026;SHT31;54819;48.030;14.710;2023-05-29T15:36:06;23.89;39.30
68026;SHT31;54819;48.030;14.710;2023-05-29T15:38:34;23.87;39.63
68026;SHT31;54819;48.030;14.710;2023-05-29T15:41:00;23.86;39.73
68026;SHT31;54819;48.030;14.710;2023-05-29T15:43:27;23.84;39.21
68026;SHT31;54819;48.030;14.710;2023-05-29T15:45:53;23.83;39.84
68026;SHT31;54819;48.030;14.710;2023-05-29T15:48:21;23.82;40.54
68026;SHT31;54819;48.030;14.710;2023-05-29T15:50:47;23.79;39.86
68026;SHT31;54819;48.030;14.710;2023-05-29T15:53:14;23.76;39.88